El Ejido, Spain
Current Conditions -  °F | °C
As of 10:30 PM on Tuesday 27 Jan 2015 (Local Time) from LEAM Reporting Station
Few Clouds Few Clouds  
Wind Chill: 52°   Ceiling: Unl
Heat Index: 52°   Visibility: 6mi
Dew Point: 48°   Wind: 2mph
Humidity: 88%   Direction: NA
Pressure: 30.21"   Gusts: NA
Location:  36.78°N, 2.81°W
Report Text: LEAM 272130Z VRB02KT 9999 FEW015 11/09 Q1023
Loading
Personal Weather Stations






























Interactive Weather Map New forecast layout! Learn more

10-Day Weather Forecast

Advertisements
Track Severe Weather on mobile